sensor_id;sensor_type;location;lat;lon;timestamp;temperature;humidity
7516;DHT22;3799;47.184;8.538;2024-01-30T00:01:13;3.70;99.90
7516;DHT22;3799;47.184;8.538;2024-01-30T00:03:42;3.80;99.90
7516;DHT22;3799;47.184;8.538;2024-01-30T00:06:11;3.70;99.90
7516;DHT22;3799;47.184;8.538;2024-01-30T00:08:40;3.70;99.90
7516;DHT22;3799;47.184;8.538;2024-01-30T00:11:10;3.70;99.90
7516;DHT22;3799;47.184;8.538;2024-01-30T00:13:38;3.50;99.90
7516;DHT22;3799;47.184;8.538;2024-01-30T00:16:05;3.60;99.90
7516;DHT22;3799;47.184;8.538;2024-01-30T00:18:33;3.60;99.90
7516;DHT22;3799;47.184;8.538;2024-01-30T00:21:01;3.50;99.90
7516;DHT22;3799;47.184;8.538;2024-01-30T00:23:30;3.70;99.90
7516;DHT22;3799;47.184;8.538;2024-01-30T00:25:57;3.40;99.90
7516;DHT22;3799;47.184;8.538;2024-01-30T00:28:24;3.60;99.90
7516;DHT22;3799;47.184;8.538;2024-01-30T00:30:52;3.50;99.90
7516;DHT22;3799;47.184;8.538;2024-01-30T00:33:22;3.70;99.90
7516;DHT22;3799;47.184;8.538;2024-01-30T00:35:53;3.70;99.90
7516;DHT22;3799;47.184;8.538;2024-01-30T00:38:24;3.60;99.90
7516;DHT22;3799;47.184;8.538;2024-01-30T00:40:52;3.60;99.90
7516;DHT22;3799;47.184;8.538;2024-01-30T00:43:25;3.60;99.90
7516;DHT22;3799;47.184;8.538;2024-01-30T00:45:53;3.60;99.90
7516;DHT22;3799;47.184;8.538;2024-01-30T00:48:23;3.40;99.90
7516;DHT22;3799;47.184;8.538;2024-01-30T00:50:56;3.50;99.90
7516;DHT22;3799;47.184;8.538;2024-01-30T00:53:32;3.50;99.90
7516;DHT22;3799;47.184;8.538;2024-01-30T00:55:59;3.90;99.90
7516;DHT22;3799;47.184;8.538;2024-01-30T00:58:27;3.60;99.90
7516;DHT22;3799;47.184;8.538;2024-01-30T01:00:55;3.70;99.90
7516;DHT22;3799;47.184;8.538;2024-01-30T01:03:22;3.70;99.90
7516;DHT22;3799;47.184;8.538;2024-01-30T01:05:50;3.80;99.90
7516;DHT22;3799;47.184;8.538;2024-01-30T01:08:17;3.50;99.90
7516;DHT22;3799;47.184;8.538;2024-01-30T01:10:45;3.70;99.90
7516;DHT22;3799;47.184;8.538;2024-01-30T01:13:14;3.70;99.90
7516;DHT22;3799;47.184;8.538;2024-01-30T01:15:42;3.50;99.90
7516;DHT22;3799;47.184;8.538;2024-01-30T01:18:10;3.60;99.90
7516;DHT22;3799;47.184;8.538;2024-01-30T01:20:37;3.60;99.90
7516;DHT22;3799;47.184;8.538;2024-01-30T01:23:05;3.40;99.90
7516;DHT22;3799;47.184;8.538;2024-01-30T01:25:35;3.60;99.90
7516;DHT22;3799;47.184;8.538;2024-01-30T01:28:02;3.70;99.90
7516;DHT22;3799;47.184;8.538;2024-01-30T01:30:31;3.80;99.90
7516;DHT22;3799;47.184;8.538;2024-01-30T01:32:58;3.60;99.90
7516;DHT22;3799;47.184;8.538;2024-01-30T01:35:32;3.60;99.90
7516;DHT22;3799;47.184;8.538;2024-01-30T01:37:59;3.80;99.90
7516;DHT22;3799;47.184;8.538;2024-01-30T01:40:29;3.70;99.90
7516;DHT22;3799;47.184;8.538;2024-01-30T01:42:57;3.60;99.90
7516;DHT22;3799;47.184;8.538;2024-01-30T01:45:24;3.70;99.90
7516;DHT22;3799;47.184;8.538;2024-01-30T01:47:52;3.70;99.90
7516;DHT22;3799;47.184;8.538;2024-01-30T01:50:25;3.50;99.90
7516;DHT22;3799;47.184;8.538;2024-01-30T01:52:56;3.70;99.90
7516;DHT22;3799;47.184;8.538;2024-01-30T01:55:25;3.60;99.90
7516;DHT22;3799;47.184;8.538;2024-01-30T01:57:55;3.60;99.90
7516;DHT22;3799;47.184;8.538;2024-01-30T02:00:25;3.50;99.90
7516;DHT22;3799;47.184;8.538;2024-01-30T02:02:55;3.40;99.90
7516;DHT22;3799;47.184;8.538;2024-01-30T02:05:30;3.30;99.90
7516;DHT22;3799;47.184;8.538;2024-01-30T02:07:58;3.70;99.90
7516;DHT22;3799;47.184;8.538;2024-01-30T02:10:29;3.50;99.90
7516;DHT22;3799;47.184;8.538;2024-01-30T02:13:00;3.50;99.90
7516;DHT22;3799;47.184;8.538;2024-01-30T02:15:28;3.50;99.90
7516;DHT22;3799;47.184;8.538;2024-01-30T02:17:56;3.30;99.90
7516;DHT22;3799;47.184;8.538;2024-01-30T02:20:25;3.30;99.90
7516;DHT22;3799;47.184;8.538;2024-01-30T02:22:56;3.40;99.90
7516;DHT22;3799;47.184;8.538;2024-01-30T02:25:40;3.40;99.90
7516;DHT22;3799;47.184;8.538;2024-01-30T02:28:13;3.20;99.90
7516;DHT22;3799;47.184;8.538;2024-01-30T02:30:45;3.40;99.90
7516;DHT22;3799;47.184;8.538;2024-01-30T02:33:13;3.20;99.90
7516;DHT22;3799;47.184;8.538;2024-01-30T02:35:41;3.30;99.90
7516;DHT22;3799;47.184;8.538;2024-01-30T02:38:10;3.30;99.90
7516;DHT22;3799;47.184;8.538;2024-01-30T02:40:38;3.30;99.90
7516;DHT22;3799;47.184;8.538;2024-01-30T02:43:05;3.40;99.90
7516;DHT22;3799;47.184;8.538;2024-01-30T02:45:32;3.40;99.90
7516;DHT22;3799;47.184;8.538;2024-01-30T02:48:02;3.30;99.90
7516;DHT22;3799;47.184;8.538;2024-01-30T02:50:32;3.30;99.90
7516;DHT22;3799;47.184;8.538;2024-01-30T02:53:00;3.40;99.90
7516;DHT22;3799;47.184;8.538;2024-01-30T02:55:30;3.20;99.90
7516;DHT22;3799;47.184;8.538;2024-01-30T02:57:58;3.40;99.90
7516;DHT22;3799;47.184;8.538;2024-01-30T03:00:29;3.30;99.90
7516;DHT22;3799;47.184;8.538;2024-01-30T03:02:59;3.40;99.90
7516;DHT22;3799;47.184;8.538;2024-01-30T03:05:29;3.40;99.90
7516;DHT22;3799;47.184;8.538;2024-01-30T03:08:12;3.20;99.90
7516;DHT22;3799;47.184;8.538;2024-01-30T03:10:43;3.20;99.90
7516;DHT22;3799;47.184;8.538;2024-01-30T03:13:16;3.10;99.90
7516;DHT22;3799;47.184;8.538;2024-01-30T03:15:44;3.00;99.90
7516;DHT22;3799;47.184;8.538;2024-01-30T03:18:11;3.10;99.90
7516;DHT22;3799;47.184;8.538;2024-01-30T03:20:39;3.20;99.90
7516;DHT22;3799;47.184;8.538;2024-01-30T03:23:07;3.10;99.90
7516;DHT22;3799;47.184;8.538;2024-01-30T03:25:34;3.30;99.90
7516;DHT22;3799;47.184;8.538;2024-01-30T03:28:03;3.10;99.90
7516;DHT22;3799;47.184;8.538;2024-01-30T03:30:34;3.00;99.90
7516;DHT22;3799;47.184;8.538;2024-01-30T03:33:01;3.10;99.90
7516;DHT22;3799;47.184;8.538;2024-01-30T03:35:34;3.40;99.90
7516;DHT22;3799;47.184;8.538;2024-01-30T03:38:02;3.20;99.90
7516;DHT22;3799;47.184;8.538;2024-01-30T03:40:29;3.20;99.90
7516;DHT22;3799;47.184;8.538;2024-01-30T03:42:57;3.10;99.90
7516;DHT22;3799;47.184;8.538;2024-01-30T03:45:28;3.00;99.90
7516;DHT22;3799;47.184;8.538;2024-01-30T03:47:55;3.10;99.90
7516;DHT22;3799;47.184;8.538;2024-01-30T03:50:23;3.30;99.90
7516;DHT22;3799;47.184;8.538;2024-01-30T03:52:50;3.20;99.90
7516;DHT22;3799;47.184;8.538;2024-01-30T03:55:18;3.20;99.90
7516;DHT22;3799;47.184;8.538;2024-01-30T03:57:45;3.20;99.90
7516;DHT22;3799;47.184;8.538;2024-01-30T04:00:14;3.10;99.90
7516;DHT22;3799;47.184;8.538;2024-01-30T04:02:41;3.20;99.90
7516;DHT22;3799;47.184;8.538;2024-01-30T04:05:17;2.90;99.90
7516;DHT22;3799;47.184;8.538;2024-01-30T04:07:44;3.20;99.90
7516;DHT22;3799;47.184;8.538;2024-01-30T04:10:12;3.10;99.90
7516;DHT22;3799;47.184;8.538;2024-01-30T04:12:42;3.30;99.90
7516;DHT22;3799;47.184;8.538;2024-01-30T04:15:09;3.20;99.90
7516;DHT22;3799;47.184;8.538;2024-01-30T04:17:37;3.10;99.90
7516;DHT22;3799;47.184;8.538;2024-01-30T04:20:05;3.20;99.90
7516;DHT22;3799;47.184;8.538;2024-01-30T04:22:32;3.30;99.90
7516;DHT22;3799;47.184;8.538;2024-01-30T04:25:00;3.30;99.90
7516;DHT22;3799;47.184;8.538;2024-01-30T04:27:27;3.00;99.90
7516;DHT22;3799;47.184;8.538;2024-01-30T04:30:04;3.00;99.90
7516;DHT22;3799;47.184;8.538;2024-01-30T04:32:32;3.10;99.90
7516;DHT22;3799;47.184;8.538;2024-01-30T04:35:00;3.20;99.90
7516;DHT22;3799;47.184;8.538;2024-01-30T04:37:27;2.90;99.90
7516;DHT22;3799;47.184;8.538;2024-01-30T04:39:55;3.30;99.90
7516;DHT22;3799;47.184;8.538;2024-01-30T04:42:37;3.10;99.90
7516;DHT22;3799;47.184;8.538;2024-01-30T04:45:05;3.20;99.90
7516;DHT22;3799;47.184;8.538;2024-01-30T04:47:33;3.10;99.90
7516;DHT22;3799;47.184;8.538;2024-01-30T04:50:01;2.90;99.90
7516;DHT22;3799;47.184;8.538;2024-01-30T04:52:32;3.20;99.90
7516;DHT22;3799;47.184;8.538;2024-01-30T04:55:03;2.90;99.90
7516;DHT22;3799;47.184;8.538;2024-01-30T04:57:30;2.90;99.90
7516;DHT22;3799;47.184;8.538;2024-01-30T04:59:59;3.10;99.90
7516;DHT22;3799;47.184;8.538;2024-01-30T05:02:27;3.20;99.90
7516;DHT22;3799;47.184;8.538;2024-01-30T05:04:55;3.00;99.90
7516;DHT22;3799;47.184;8.538;2024-01-30T05:07:25;3.00;99.90
7516;DHT22;3799;47.184;8.538;2024-01-30T05:09:56;2.90;99.90
7516;DHT22;3799;47.184;8.538;2024-01-30T05:12:29;3.30;99.90
7516;DHT22;3799;47.184;8.538;2024-01-30T05:14:56;3.30;99.90
7516;DHT22;3799;47.184;8.538;2024-01-30T05:17:23;2.90;99.90
7516;DHT22;3799;47.184;8.538;2024-01-30T05:19:53;3.00;99.90
7516;DHT22;3799;47.184;8.538;2024-01-30T05:22:21;2.90;99.90
7516;DHT22;3799;47.184;8.538;2024-01-30T05:24:52;3.00;99.90
7516;DHT22;3799;47.184;8.538;2024-01-30T05:27:20;2.90;99.90
7516;DHT22;3799;47.184;8.538;2024-01-30T05:30:01;2.90;99.90
7516;DHT22;3799;47.184;8.538;2024-01-30T05:32:32;3.10;99.90
7516;DHT22;3799;47.184;8.538;2024-01-30T05:35:03;2.70;99.90
7516;DHT22;3799;47.184;8.538;2024-01-30T05:37:31;2.90;99.90
7516;DHT22;3799;47.184;8.538;2024-01-30T05:39:58;2.90;99.90
7516;DHT22;3799;47.184;8.538;2024-01-30T05:42:32;2.80;99.90
7516;DHT22;3799;47.184;8.538;2024-01-30T05:44:59;3.00;99.90
7516;DHT22;3799;47.184;8.538;2024-01-30T05:47:26;2.80;99.90
7516;DHT22;3799;47.184;8.538;2024-01-30T05:49:54;2.70;99.90
7516;DHT22;3799;47.184;8.538;2024-01-30T05:52:21;3.00;99.90
7516;DHT22;3799;47.184;8.538;2024-01-30T05:54:49;2.80;99.90
7516;DHT22;3799;47.184;8.538;2024-01-30T05:57:17;2.70;99.90
7516;DHT22;3799;47.184;8.538;2024-01-30T05:59:45;2.70;99.90
7516;DHT22;3799;47.184;8.538;2024-01-30T06:02:12;2.60;99.90
7516;DHT22;3799;47.184;8.538;2024-01-30T06:04:39;2.60;99.90
7516;DHT22;3799;47.184;8.538;2024-01-30T06:07:07;2.70;99.90
7516;DHT22;3799;47.184;8.538;2024-01-30T06:09:35;2.70;99.90
7516;DHT22;3799;47.184;8.538;2024-01-30T06:12:03;2.60;99.90
7516;DHT22;3799;47.184;8.538;2024-01-30T06:14:35;2.70;99.90
7516;DHT22;3799;47.184;8.538;2024-01-30T06:17:03;2.70;99.90
7516;DHT22;3799;47.184;8.538;2024-01-30T06:19:31;2.60;99.90
7516;DHT22;3799;47.184;8.538;2024-01-30T06:22:03;2.80;99.90
7516;DHT22;3799;47.184;8.538;2024-01-30T06:24:33;2.70;99.90
7516;DHT22;3799;47.184;8.538;2024-01-30T06:27:04;2.80;99.90
7516;DHT22;3799;47.184;8.538;2024-01-30T06:29:34;2.90;99.90
7516;DHT22;3799;47.184;8.538;2024-01-30T06:32:01;2.80;99.90
7516;DHT22;3799;47.184;8.538;2024-01-30T06:34:29;2.70;99.90
7516;DHT22;3799;47.184;8.538;2024-01-30T06:36:57;2.70;99.90
7516;DHT22;3799;47.184;8.538;2024-01-30T06:39:26;3.00;99.90
7516;DHT22;3799;47.184;8.538;2024-01-30T06:41:57;2.70;99.90
7516;DHT22;3799;47.184;8.538;2024-01-30T06:44:24;2.90;99.90
7516;DHT22;3799;47.184;8.538;2024-01-30T06:46:54;3.10;99.90
7516;DHT22;3799;47.184;8.538;2024-01-30T06:49:32;2.90;99.90
7516;DHT22;3799;47.184;8.538;2024-01-30T06:52:02;2.80;99.90
7516;DHT22;3799;47.184;8.538;2024-01-30T06:54:30;2.90;99.90
7516;DHT22;3799;47.184;8.538;2024-01-30T06:56:59;3.00;99.90
7516;DHT22;3799;47.184;8.538;2024-01-30T06:59:41;3.00;99.90
7516;DHT22;3799;47.184;8.538;2024-01-30T07:02:11;3.10;99.90
7516;DHT22;3799;47.184;8.538;2024-01-30T07:04:40;2.70;99.90
7516;DHT22;3799;47.184;8.538;2024-01-30T07:07:13;3.00;99.90
7516;DHT22;3799;47.184;8.538;2024-01-30T07:09:44;3.10;99.90
7516;DHT22;3799;47.184;8.538;2024-01-30T07:12:12;3.10;99.90
7516;DHT22;3799;47.184;8.538;2024-01-30T07:14:39;3.20;99.90
7516;DHT22;3799;47.184;8.538;2024-01-30T07:17:10;2.80;99.90
7516;DHT22;3799;47.184;8.538;2024-01-30T07:19:40;3.00;99.90
7516;DHT22;3799;47.184;8.538;2024-01-30T07:22:08;3.00;99.90
7516;DHT22;3799;47.184;8.538;2024-01-30T07:24:36;2.80;99.90
7516;DHT22;3799;47.184;8.538;2024-01-30T07:27:12;3.00;99.90
7516;DHT22;3799;47.184;8.538;2024-01-30T07:29:40;2.90;99.90
7516;DHT22;3799;47.184;8.538;2024-01-30T07:32:08;3.10;99.90
7516;DHT22;3799;47.184;8.538;2024-01-30T07:34:35;3.00;99.90
7516;DHT22;3799;47.184;8.538;2024-01-30T07:37:19;2.90;99.90
7516;DHT22;3799;47.184;8.538;2024-01-30T07:39:47;2.90;99.90
7516;DHT22;3799;47.184;8.538;2024-01-30T07:42:16;3.00;99.90
7516;DHT22;3799;47.184;8.538;2024-01-30T07:44:44;3.00;99.90
7516;DHT22;3799;47.184;8.538;2024-01-30T07:47:14;3.00;99.90
7516;DHT22;3799;47.184;8.538;2024-01-30T07:49:44;3.20;99.90
7516;DHT22;3799;47.184;8.538;2024-01-30T07:52:13;3.00;99.90
7516;DHT22;3799;47.184;8.538;2024-01-30T07:54:43;3.10;99.90
7516;DHT22;3799;47.184;8.538;2024-01-30T07:57:11;2.90;99.90
7516;DHT22;3799;47.184;8.538;2024-01-30T07:59:39;3.20;99.90
7516;DHT22;3799;47.184;8.538;2024-01-30T08:02:09;3.10;99.90
7516;DHT22;3799;47.184;8.538;2024-01-30T08:04:37;3.30;99.90
7516;DHT22;3799;47.184;8.538;2024-01-30T08:07:04;3.30;99.90
7516;DHT22;3799;47.184;8.538;2024-01-30T08:09:32;3.40;99.90
7516;DHT22;3799;47.184;8.538;2024-01-30T08:11:59;3.40;99.90
7516;DHT22;3799;47.184;8.538;2024-01-30T08:14:27;3.40;99.90
7516;DHT22;3799;47.184;8.538;2024-01-30T08:16:55;3.30;99.90
7516;DHT22;3799;47.184;8.538;2024-01-30T08:19:23;3.50;99.90
7516;DHT22;3799;47.184;8.538;2024-01-30T08:21:51;3.60;99.90
7516;DHT22;3799;47.184;8.538;2024-01-30T08:24:19;3.60;99.90
7516;DHT22;3799;47.184;8.538;2024-01-30T08:26:47;3.60;99.90
7516;DHT22;3799;47.184;8.538;2024-01-30T08:29:15;3.70;99.90
7516;DHT22;3799;47.184;8.538;2024-01-30T08:31:43;3.60;99.90
7516;DHT22;3799;47.184;8.538;2024-01-30T08:34:11;3.70;99.90
7516;DHT22;3799;47.184;8.538;2024-01-30T08:36:39;3.70;99.90
7516;DHT22;3799;47.184;8.538;2024-01-30T08:39:07;3.80;99.90
7516;DHT22;3799;47.184;8.538;2024-01-30T08:41:34;3.80;99.90
7516;DHT22;3799;47.184;8.538;2024-01-30T08:44:01;3.80;99.90
7516;DHT22;3799;47.184;8.538;2024-01-30T08:46:30;3.70;99.90
7516;DHT22;3799;47.184;8.538;2024-01-30T08:48:58;3.90;99.90
7516;DHT22;3799;47.184;8.538;2024-01-30T08:51:25;3.80;99.90
7516;DHT22;3799;47.184;8.538;2024-01-30T08:53:53;4.10;99.90
7516;DHT22;3799;47.184;8.538;2024-01-30T08:56:21;4.30;99.90
7516;DHT22;3799;47.184;8.538;2024-01-30T08:58:48;4.30;99.90
7516;DHT22;3799;47.184;8.538;2024-01-30T09:01:16;4.30;99.90
7516;DHT22;3799;47.184;8.538;2024-01-30T09:03:44;4.10;99.90
7516;DHT22;3799;47.184;8.538;2024-01-30T09:06:15;4.10;99.90
7516;DHT22;3799;47.184;8.538;2024-01-30T09:08:43;4.30;99.90
7516;DHT22;3799;47.184;8.538;2024-01-30T09:11:12;4.20;99.90
7516;DHT22;3799;47.184;8.538;2024-01-30T09:13:40;4.40;99.90
7516;DHT22;3799;47.184;8.538;2024-01-30T09:16:08;4.40;99.90
7516;DHT22;3799;47.184;8.538;2024-01-30T09:18:36;4.50;99.90
7516;DHT22;3799;47.184;8.538;2024-01-30T09:21:03;4.50;99.90
7516;DHT22;3799;47.184;8.538;2024-01-30T09:23:31;4.50;99.90
7516;DHT22;3799;47.184;8.538;2024-01-30T09:25:59;4.60;99.90
7516;DHT22;3799;47.184;8.538;2024-01-30T09:28:34;4.80;99.90
7516;DHT22;3799;47.184;8.538;2024-01-30T09:31:09;4.80;99.90
7516;DHT22;3799;47.184;8.538;2024-01-30T09:33:40;4.90;99.90
7516;DHT22;3799;47.184;8.538;2024-01-30T09:36:08;4.80;99.90
7516;DHT22;3799;47.184;8.538;2024-01-30T09:38:39;5.00;99.90
7516;DHT22;3799;47.184;8.538;2024-01-30T09:41:09;5.00;99.90
7516;DHT22;3799;47.184;8.538;2024-01-30T09:43:40;5.50;99.90
7516;DHT22;3799;47.184;8.538;2024-01-30T09:46:12;5.50;99.90
7516;DHT22;3799;47.184;8.538;2024-01-30T09:48:41;5.60;99.90
7516;DHT22;3799;47.184;8.538;2024-01-30T09:51:14;5.70;99.90
7516;DHT22;3799;47.184;8.538;2024-01-30T09:53:42;5.70;99.90
7516;DHT22;3799;47.184;8.538;2024-01-30T09:56:12;5.80;99.90
7516;DHT22;3799;47.184;8.538;2024-01-30T09:58:40;6.00;99.90
7516;DHT22;3799;47.184;8.538;2024-01-30T10:01:07;5.80;99.90
7516;DHT22;3799;47.184;8.538;2024-01-30T10:03:35;6.00;99.90
7516;DHT22;3799;47.184;8.538;2024-01-30T10:06:03;6.00;99.90
7516;DHT22;3799;47.184;8.538;2024-01-30T10:08:30;6.30;99.90
7516;DHT22;3799;47.184;8.538;2024-01-30T10:10:58;6.30;99.90
7516;DHT22;3799;47.184;8.538;2024-01-30T10:13:27;6.20;99.90
7516;DHT22;3799;47.184;8.538;2024-01-30T10:15:55;6.60;99.90
7516;DHT22;3799;47.184;8.538;2024-01-30T10:18:27;6.30;99.90
7516;DHT22;3799;47.184;8.538;2024-01-30T10:20:55;6.70;99.90
7516;DHT22;3799;47.184;8.538;2024-01-30T10:23:25;6.70;99.90
7516;DHT22;3799;47.184;8.538;2024-01-30T10:25:55;6.60;99.90
7516;DHT22;3799;47.184;8.538;2024-01-30T10:28:23;6.70;99.90
7516;DHT22;3799;47.184;8.538;2024-01-30T10:31:00;6.80;99.90
7516;DHT22;3799;47.184;8.538;2024-01-30T10:33:32;7.00;99.90
7516;DHT22;3799;47.184;8.538;2024-01-30T10:36:02;6.90;99.90
7516;DHT22;3799;47.184;8.538;2024-01-30T10:38:31;7.20;99.90
7516;DHT22;3799;47.184;8.538;2024-01-30T10:41:00;7.60;99.90
7516;DHT22;3799;47.184;8.538;2024-01-30T10:43:32;7.50;99.90
7516;DHT22;3799;47.184;8.538;2024-01-30T10:46:11;7.80;99.90
7516;DHT22;3799;47.184;8.538;2024-01-30T10:48:43;7.90;99.90
7516;DHT22;3799;47.184;8.538;2024-01-30T10:51:12;8.10;99.90
7516;DHT22;3799;47.184;8.538;2024-01-30T10:53:41;8.10;99.90
7516;DHT22;3799;47.184;8.538;2024-01-30T10:56:10;8.50;99.90
7516;DHT22;3799;47.184;8.538;2024-01-30T10:58:38;8.60;99.90
7516;DHT22;3799;47.184;8.538;2024-01-30T11:01:06;8.90;99.90
7516;DHT22;3799;47.184;8.538;2024-01-30T11:03:34;9.00;99.90
7516;DHT22;3799;47.184;8.538;2024-01-30T11:06:03;9.00;99.90
7516;DHT22;3799;47.184;8.538;2024-01-30T11:08:33;9.30;99.90
7516;DHT22;3799;47.184;8.538;2024-01-30T11:11:01;9.40;99.90
7516;DHT22;3799;47.184;8.538;2024-01-30T11:13:33;9.70;99.90
7516;DHT22;3799;47.184;8.538;2024-01-30T11:16:03;9.60;99.90
7516;DHT22;3799;47.184;8.538;2024-01-30T11:18:33;9.80;99.90
7516;DHT22;3799;47.184;8.538;2024-01-30T11:21:00;10.00;99.60
7516;DHT22;3799;47.184;8.538;2024-01-30T11:23:29;10.10;98.40
7516;DHT22;3799;47.184;8.538;2024-01-30T11:25:57;10.20;97.50
7516;DHT22;3799;47.184;8.538;2024-01-30T11:28:25;10.10;96.70
7516;DHT22;3799;47.184;8.538;2024-01-30T11:31:06;9.90;96.50
7516;DHT22;3799;47.184;8.538;2024-01-30T11:33:38;10.10;95.70
7516;DHT22;3799;47.184;8.538;2024-01-30T11:36:06;10.10;95.80
7516;DHT22;3799;47.184;8.538;2024-01-30T11:38:34;10.30;95.70
7516;DHT22;3799;47.184;8.538;2024-01-30T11:41:08;10.20;96.70
7516;DHT22;3799;47.184;8.538;2024-01-30T11:43:36;10.20;97.60
7516;DHT22;3799;47.184;8.538;2024-01-30T11:46:06;10.10;97.70
7516;DHT22;3799;47.184;8.538;2024-01-30T11:48:34;10.20;97.90
7516;DHT22;3799;47.184;8.538;2024-01-30T11:51:02;10.50;98.10
7516;DHT22;3799;47.184;8.538;2024-01-30T11:53:29;10.60;98.10
7516;DHT22;3799;47.184;8.538;2024-01-30T11:55:57;10.80;97.80
7516;DHT22;3799;47.184;8.538;2024-01-30T11:58:25;11.00;97.00
7516;DHT22;3799;47.184;8.538;2024-01-30T12:00:56;10.80;96.10
7516;DHT22;3799;47.184;8.538;2024-01-30T12:03:27;10.80;95.50
7516;DHT22;3799;47.184;8.538;2024-01-30T12:05:56;11.10;95.80
7516;DHT22;3799;47.184;8.538;2024-01-30T12:08:26;11.20;95.50
7516;DHT22;3799;47.184;8.538;2024-01-30T12:10:58;11.80;95.40
7516;DHT22;3799;47.184;8.538;2024-01-30T12:13:26;11.80;94.30
7516;DHT22;3799;47.184;8.538;2024-01-30T12:16:00;12.00;93.40
7516;DHT22;3799;47.184;8.538;2024-01-30T12:18:28;12.00;92.60
7516;DHT22;3799;47.184;8.538;2024-01-30T12:20:59;12.20;91.90
7516;DHT22;3799;47.184;8.538;2024-01-30T12:23:28;12.30;90.60
7516;DHT22;3799;47.184;8.538;2024-01-30T12:26:03;12.50;89.40
7516;DHT22;3799;47.184;8.538;2024-01-30T12:28:33;12.60;86.60
7516;DHT22;3799;47.184;8.538;2024-01-30T12:31:02;13.00;85.10
7516;DHT22;3799;47.184;8.538;2024-01-30T12:33:30;13.20;80.80
7516;DHT22;3799;47.184;8.538;2024-01-30T12:36:02;13.20;78.10
7516;DHT22;3799;47.184;8.538;2024-01-30T12:38:36;13.20;75.50
7516;DHT22;3799;47.184;8.538;2024-01-30T12:41:10;13.40;74.60
7516;DHT22;3799;47.184;8.538;2024-01-30T12:43:41;13.70;74.40
7516;DHT22;3799;47.184;8.538;2024-01-30T12:46:09;13.60;72.50
7516;DHT22;3799;47.184;8.538;2024-01-30T12:48:37;14.00;71.90
7516;DHT22;3799;47.184;8.538;2024-01-30T12:51:13;14.00;69.40
7516;DHT22;3799;47.184;8.538;2024-01-30T12:53:44;14.40;66.80
7516;DHT22;3799;47.184;8.538;2024-01-30T12:56:14;14.50;66.70
7516;DHT22;3799;47.184;8.538;2024-01-30T12:58:42;14.70;62.40
7516;DHT22;3799;47.184;8.538;2024-01-30T13:01:13;14.40;60.70
7516;DHT22;3799;47.184;8.538;2024-01-30T13:03:53;14.60;61.70
7516;DHT22;3799;47.184;8.538;2024-01-30T13:06:23;14.90;59.90
7516;DHT22;3799;47.184;8.538;2024-01-30T13:08:57;15.40;58.80
7516;DHT22;3799;47.184;8.538;2024-01-30T13:11:31;15.70;57.80
7516;DHT22;3799;47.184;8.538;2024-01-30T13:14:02;16.00;56.80
7516;DHT22;3799;47.184;8.538;2024-01-30T13:16:33;16.30;56.50
7516;DHT22;3799;47.184;8.538;2024-01-30T13:19:08;16.60;55.60
7516;DHT22;3799;47.184;8.538;2024-01-30T13:21:39;16.90;54.80
7516;DHT22;3799;47.184;8.538;2024-01-30T13:24:09;17.00;54.30
7516;DHT22;3799;47.184;8.538;2024-01-30T13:26:42;16.90;53.40
7516;DHT22;3799;47.184;8.538;2024-01-30T13:29:11;16.90;53.60
7516;DHT22;3799;47.184;8.538;2024-01-30T13:31:41;16.90;53.70
7516;DHT22;3799;47.184;8.538;2024-01-30T13:34:17;16.90;53.50
7516;DHT22;3799;47.184;8.538;2024-01-30T13:36:45;17.10;53.30
7516;DHT22;3799;47.184;8.538;2024-01-30T13:39:16;17.10;53.00
7516;DHT22;3799;47.184;8.538;2024-01-30T13:41:46;17.10;52.80
7516;DHT22;3799;47.184;8.538;2024-01-30T13:44:16;17.10;53.10
7516;DHT22;3799;47.184;8.538;2024-01-30T13:46:49;17.30;53.10
7516;DHT22;3799;47.184;8.538;2024-01-30T13:49:16;17.70;52.20
7516;DHT22;3799;47.184;8.538;2024-01-30T13:51:45;18.00;52.20
7516;DHT22;3799;47.184;8.538;2024-01-30T13:54:13;18.10;51.50
7516;DHT22;3799;47.184;8.538;2024-01-30T13:56:42;18.40;51.60
7516;DHT22;3799;47.184;8.538;2024-01-30T13:59:14;18.60;50.90
7516;DHT22;3799;47.184;8.538;2024-01-30T14:01:44;18.80;49.40
7516;DHT22;3799;47.184;8.538;2024-01-30T14:04:11;18.80;49.10
7516;DHT22;3799;47.184;8.538;2024-01-30T14:06:45;18.70;49.10
7516;DHT22;3799;47.184;8.538;2024-01-30T14:09:23;18.70;48.80
7516;DHT22;3799;47.184;8.538;2024-01-30T14:11:50;18.50;48.90
7516;DHT22;3799;47.184;8.538;2024-01-30T14:14:21;18.40;48.70
7516;DHT22;3799;47.184;8.538;2024-01-30T14:16:48;18.40;48.60
7516;DHT22;3799;47.184;8.538;2024-01-30T14:19:15;18.40;48.30
7516;DHT22;3799;47.184;8.538;2024-01-30T14:21:43;18.10;47.70
7516;DHT22;3799;47.184;8.538;2024-01-30T14:24:10;17.70;48.60
7516;DHT22;3799;47.184;8.538;2024-01-30T14:26:38;17.60;48.60
7516;DHT22;3799;47.184;8.538;2024-01-30T14:29:08;17.40;48.20
7516;DHT22;3799;47.184;8.538;2024-01-30T14:31:38;17.10;48.70
7516;DHT22;3799;47.184;8.538;2024-01-30T14:34:09;16.90;49.00
7516;DHT22;3799;47.184;8.538;2024-01-30T14:36:38;16.60;48.90
7516;DHT22;3799;47.184;8.538;2024-01-30T14:39:05;16.20;49.50
7516;DHT22;3799;47.184;8.538;2024-01-30T14:41:33;15.70;50.00
7516;DHT22;3799;47.184;8.538;2024-01-30T14:44:01;15.10;50.50
7516;DHT22;3799;47.184;8.538;2024-01-30T14:46:31;14.50;51.00
7516;DHT22;3799;47.184;8.538;2024-01-30T14:48:59;13.90;51.70
7516;DHT22;3799;47.184;8.538;2024-01-30T14:51:32;13.40;52.40
7516;DHT22;3799;47.184;8.538;2024-01-30T14:54:00;13.30;53.30
7516;DHT22;3799;47.184;8.538;2024-01-30T14:56:28;12.80;53.80
7516;DHT22;3799;47.184;8.538;2024-01-30T14:58:56;12.60;54.40
7516;DHT22;3799;47.184;8.538;2024-01-30T15:01:24;12.50;54.60
7516;DHT22;3799;47.184;8.538;2024-01-30T15:03:51;12.20;54.90
7516;DHT22;3799;47.184;8.538;2024-01-30T15:06:19;11.90;55.30
7516;DHT22;3799;47.184;8.538;2024-01-30T15:08:46;11.80;55.90
7516;DHT22;3799;47.184;8.538;2024-01-30T15:11:14;11.40;56.20
7516;DHT22;3799;47.184;8.538;2024-01-30T15:13:42;11.50;56.90
7516;DHT22;3799;47.184;8.538;2024-01-30T15:16:12;11.30;57.30
7516;DHT22;3799;47.184;8.538;2024-01-30T15:18:49;11.30;57.80
7516;DHT22;3799;47.184;8.538;2024-01-30T15:21:17;11.30;58.10
7516;DHT22;3799;47.184;8.538;2024-01-30T15:23:52;11.00;58.30
7516;DHT22;3799;47.184;8.538;2024-01-30T15:26:20;11.00;58.80
7516;DHT22;3799;47.184;8.538;2024-01-30T15:28:49;10.90;59.40
7516;DHT22;3799;47.184;8.538;2024-01-30T15:31:20;10.50;59.60
7516;DHT22;3799;47.184;8.538;2024-01-30T15:33:48;10.50;60.80
7516;DHT22;3799;47.184;8.538;2024-01-30T15:36:15;10.70;63.90
7516;DHT22;3799;47.184;8.538;2024-01-30T15:38:43;10.50;65.20
7516;DHT22;3799;47.184;8.538;2024-01-30T15:41:10;10.20;67.60
7516;DHT22;3799;47.184;8.538;2024-01-30T15:43:38;10.30;70.30
7516;DHT22;3799;47.184;8.538;2024-01-30T15:46:05;10.20;73.00
7516;DHT22;3799;47.184;8.538;2024-01-30T15:48:33;10.00;76.30
7516;DHT22;3799;47.184;8.538;2024-01-30T15:51:01;9.90;82.20
7516;DHT22;3799;47.184;8.538;2024-01-30T15:53:54;9.90;87.60
7516;DHT22;3799;47.184;8.538;2024-01-30T15:56:37;9.60;91.30
7516;DHT22;3799;47.184;8.538;2024-01-30T15:59:05;9.70;93.50
7516;DHT22;3799;47.184;8.538;2024-01-30T16:01:32;9.50;94.80
7516;DHT22;3799;47.184;8.538;2024-01-30T16:04:01;9.50;96.00
7516;DHT22;3799;47.184;8.538;2024-01-30T16:06:36;9.50;96.80
7516;DHT22;3799;47.184;8.538;2024-01-30T16:09:05;9.40;97.40
7516;DHT22;3799;47.184;8.538;2024-01-30T16:11:36;9.30;98.40
7516;DHT22;3799;47.184;8.538;2024-01-30T16:14:07;9.10;99.40
7516;DHT22;3799;47.184;8.538;2024-01-30T16:16:34;9.10;99.90
7516;DHT22;3799;47.184;8.538;2024-01-30T16:19:02;8.90;99.90
7516;DHT22;3799;47.184;8.538;2024-01-30T16:21:47;9.10;99.90
7516;DHT22;3799;47.184;8.538;2024-01-30T16:24:15;9.00;99.90
7516;DHT22;3799;47.184;8.538;2024-01-30T16:26:49;8.70;99.90
7516;DHT22;3799;47.184;8.538;2024-01-30T16:29:17;8.80;99.90